sensor_id;sensor_type;location;lat;lon;timestamp;P1;durP1;ratioP1;P2;durP2;ratioP2
25187;SDS011;13141;50.414;8.050;2023-07-09T00:01:01;0.20;;;0.20;;
25187;SDS011;13141;50.414;8.050;2023-07-09T00:03:31;0.10;;;0.10;;
25187;SDS011;13141;50.414;8.050;2023-07-09T00:05:57;0.20;;;0.20;;
25187;SDS011;13141;50.414;8.050;2023-07-09T00:08:24;0.10;;;0.10;;
25187;SDS011;13141;50.414;8.050;2023-07-09T00:10:51;0.20;;;0.20;;
25187;SDS011;13141;50.414;8.050;2023-07-09T00:13:17;0.20;;;0.20;;
25187;SDS011;13141;50.414;8.050;2023-07-09T00:15:43;0.17;;;0.17;;
25187;SDS011;13141;50.414;8.050;2023-07-09T00:18:09;0.10;;;0.10;;
25187;SDS011;13141;50.414;8.050;2023-07-09T00:20:36;0.13;;;0.13;;
25187;SDS011;13141;50.414;8.050;2023-07-09T00:23:02;0.20;;;0.20;;
25187;SDS011;13141;50.414;8.050;2023-07-09T00:25:27;0.20;;;0.20;;
25187;SDS011;13141;50.414;8.050;2023-07-09T00:27:53;0.10;;;0.10;;
25187;SDS011;13141;50.414;8.050;2023-07-09T00:30:19;0.20;;;0.20;;
25187;SDS011;13141;50.414;8.050;2023-07-09T00:32:46;0.15;;;0.15;;
25187;SDS011;13141;50.414;8.050;2023-07-09T00:35:12;0.20;;;0.20;;
25187;SDS011;13141;50.414;8.050;2023-07-09T00:37:39;0.20;;;0.20;;
25187;SDS011;13141;50.414;8.050;2023-07-09T00:40:08;0.20;;;0.20;;
25187;SDS011;13141;50.414;8.050;2023-07-09T00:42:38;0.20;;;0.20;;
25187;SDS011;13141;50.414;8.050;2023-07-09T00:45:14;0.20;;;0.20;;
25187;SDS011;13141;50.414;8.050;2023-07-09T00:47:43;0.10;;;0.10;;
25187;SDS011;13141;50.414;8.050;2023-07-09T00:50:13;0.15;;;0.15;;
25187;SDS011;13141;50.414;8.050;2023-07-09T00:52:50;0.20;;;0.20;;
25187;SDS011;13141;50.414;8.050;2023-07-09T00:55:19;0.20;;;0.20;;
25187;SDS011;13141;50.414;8.050;2023-07-09T00:57:49;0.20;;;0.20;;
25187;SDS011;13141;50.414;8.050;2023-07-09T01:00:16;0.20;;;0.20;;
25187;SDS011;13141;50.414;8.050;2023-07-09T01:02:43;0.10;;;0.10;;
25187;SDS011;13141;50.414;8.050;2023-07-09T01:05:12;0.10;;;0.10;;
25187;SDS011;13141;50.414;8.050;2023-07-09T01:07:39;0.10;;;0.10;;
25187;SDS011;13141;50.414;8.050;2023-07-09T01:10:08;0.20;;;0.20;;
25187;SDS011;13141;50.414;8.050;2023-07-09T01:12:34;0.10;;;0.10;;
25187;SDS011;13141;50.414;8.050;2023-07-09T01:14:59;0.20;;;0.20;;
25187;SDS011;13141;50.414;8.050;2023-07-09T01:17:26;0.20;;;0.20;;
25187;SDS011;13141;50.414;8.050;2023-07-09T01:19:52;0.20;;;0.20;;
25187;SDS011;13141;50.414;8.050;2023-07-09T01:22:20;0.20;;;0.20;;
25187;SDS011;13141;50.414;8.050;2023-07-09T01:24:48;0.20;;;0.20;;
25187;SDS011;13141;50.414;8.050;2023-07-09T01:27:17;0.10;;;0.10;;
25187;SDS011;13141;50.414;8.050;2023-07-09T01:29:46;0.20;;;0.20;;
25187;SDS011;13141;50.414;8.050;2023-07-09T01:32:13;0.10;;;0.10;;
25187;SDS011;13141;50.414;8.050;2023-07-09T01:34:39;0.20;;;0.20;;
25187;SDS011;13141;50.414;8.050;2023-07-09T01:37:05;0.20;;;0.20;;
25187;SDS011;13141;50.414;8.050;2023-07-09T01:39:32;0.20;;;0.20;;
25187;SDS011;13141;50.414;8.050;2023-07-09T01:41:58;0.13;;;0.13;;
25187;SDS011;13141;50.414;8.050;2023-07-09T01:44:23;0.20;;;0.20;;
25187;SDS011;13141;50.414;8.050;2023-07-09T01:46:49;0.20;;;0.20;;
25187;SDS011;13141;50.414;8.050;2023-07-09T01:49:15;0.08;;;0.08;;
25187;SDS011;13141;50.414;8.050;2023-07-09T01:51:40;0.20;;;0.20;;
25187;SDS011;13141;50.414;8.050;2023-07-09T01:54:06;0.20;;;0.20;;
25187;SDS011;13141;50.414;8.050;2023-07-09T01:56:33;0.10;;;0.10;;
25187;SDS011;13141;50.414;8.050;2023-07-09T01:58:59;0.20;;;0.20;;
25187;SDS011;13141;50.414;8.050;2023-07-09T02:01:25;0.10;;;0.10;;
25187;SDS011;13141;50.414;8.050;2023-07-09T02:03:50;0.20;;;0.20;;
25187;SDS011;13141;50.414;8.050;2023-07-09T02:06:16;0.10;;;0.10;;
25187;SDS011;13141;50.414;8.050;2023-07-09T02:08:42;0.10;;;0.10;;
25187;SDS011;13141;50.414;8.050;2023-07-09T02:11:07;0.20;;;0.20;;
25187;SDS011;13141;50.414;8.050;2023-07-09T02:13:35;0.20;;;0.20;;
25187;SDS011;13141;50.414;8.050;2023-07-09T02:16:01;0.20;;;0.20;;
25187;SDS011;13141;50.414;8.050;2023-07-09T02:18:27;0.15;;;0.15;;
25187;SDS011;13141;50.414;8.050;2023-07-09T02:20:53;0.20;;;0.20;;
25187;SDS011;13141;50.414;8.050;2023-07-09T02:23:19;0.10;;;0.10;;
25187;SDS011;13141;50.414;8.050;2023-07-09T02:25:50;0.20;;;0.20;;
25187;SDS011;13141;50.414;8.050;2023-07-09T02:28:16;0.10;;;0.10;;
25187;SDS011;13141;50.414;8.050;2023-07-09T02:30:43;0.17;;;0.17;;
25187;SDS011;13141;50.414;8.050;2023-07-09T02:33:09;0.20;;;0.20;;
25187;SDS011;13141;50.414;8.050;2023-07-09T02:35:34;0.10;;;0.10;;
25187;SDS011;13141;50.414;8.050;2023-07-09T02:38:01;0.10;;;0.10;;
25187;SDS011;13141;50.414;8.050;2023-07-09T02:40:26;0.20;;;0.20;;
25187;SDS011;13141;50.414;8.050;2023-07-09T02:42:52;0.10;;;0.10;;
25187;SDS011;13141;50.414;8.050;2023-07-09T02:45:18;0.17;;;0.17;;
25187;SDS011;13141;50.414;8.050;2023-07-09T02:47:45;0.20;;;0.20;;
25187;SDS011;13141;50.414;8.050;2023-07-09T02:50:10;0.10;;;0.10;;
25187;SDS011;13141;50.414;8.050;2023-07-09T02:52:36;0.20;;;0.20;;
25187;SDS011;13141;50.414;8.050;2023-07-09T02:55:02;0.20;;;0.20;;
25187;SDS011;13141;50.414;8.050;2023-07-09T02:57:28;0.20;;;0.20;;
25187;SDS011;13141;50.414;8.050;2023-07-09T02:59:53;0.13;;;0.13;;
25187;SDS011;13141;50.414;8.050;2023-07-09T03:02:19;0.10;;;0.10;;
25187;SDS011;13141;50.414;8.050;2023-07-09T03:04:47;0.20;;;0.20;;
25187;SDS011;13141;50.414;8.050;2023-07-09T03:07:12;0.10;;;0.10;;
25187;SDS011;13141;50.414;8.050;2023-07-09T03:09:38;0.20;;;0.20;;
25187;SDS011;13141;50.414;8.050;2023-07-09T03:12:04;0.25;;;0.25;;
25187;SDS011;13141;50.414;8.050;2023-07-09T03:14:31;0.20;;;0.20;;
25187;SDS011;13141;50.414;8.050;2023-07-09T03:16:57;0.20;;;0.20;;
25187;SDS011;13141;50.414;8.050;2023-07-09T03:19:23;0.10;;;0.10;;
25187;SDS011;13141;50.414;8.050;2023-07-09T03:21:50;0.10;;;0.10;;
25187;SDS011;13141;50.414;8.050;2023-07-09T03:24:16;0.20;;;0.20;;
25187;SDS011;13141;50.414;8.050;2023-07-09T03:26:41;0.20;;;0.20;;
25187;SDS011;13141;50.414;8.050;2023-07-09T03:29:07;0.15;;;0.15;;
25187;SDS011;13141;50.414;8.050;2023-07-09T03:31:33;0.22;;;0.22;;
25187;SDS011;13141;50.414;8.050;2023-07-09T03:33:58;0.10;;;0.10;;
25187;SDS011;13141;50.414;8.050;2023-07-09T03:36:24;0.17;;;0.17;;
25187;SDS011;13141;50.414;8.050;2023-07-09T03:38:51;0.20;;;0.20;;
25187;SDS011;13141;50.414;8.050;2023-07-09T03:41:17;0.25;;;0.25;;
25187;SDS011;13141;50.414;8.050;2023-07-09T03:43:43;0.10;;;0.10;;
25187;SDS011;13141;50.414;8.050;2023-07-09T03:46:09;0.20;;;0.20;;
25187;SDS011;13141;50.414;8.050;2023-07-09T03:48:34;0.20;;;0.20;;
25187;SDS011;13141;50.414;8.050;2023-07-09T03:51:00;0.10;;;0.10;;
25187;SDS011;13141;50.414;8.050;2023-07-09T03:53:25;0.17;;;0.17;;
25187;SDS011;13141;50.414;8.050;2023-07-09T03:55:53;0.10;;;0.10;;
25187;SDS011;13141;50.414;8.050;2023-07-09T03:58:20;0.10;;;0.10;;
25187;SDS011;13141;50.414;8.050;2023-07-09T04:00:46;0.10;;;0.10;;
25187;SDS011;13141;50.414;8.050;2023-07-09T04:03:12;0.13;;;0.13;;
25187;SDS011;13141;50.414;8.050;2023-07-09T04:05:38;0.10;;;0.10;;
25187;SDS011;13141;50.414;8.050;2023-07-09T04:08:04;0.10;;;0.10;;
25187;SDS011;13141;50.414;8.050;2023-07-09T04:10:30;0.10;;;0.10;;
25187;SDS011;13141;50.414;8.050;2023-07-09T04:12:57;0.20;;;0.20;;
25187;SDS011;13141;50.414;8.050;2023-07-09T04:15:23;0.20;;;0.20;;
25187;SDS011;13141;50.414;8.050;2023-07-09T04:17:49;0.20;;;0.20;;
25187;SDS011;13141;50.414;8.050;2023-07-09T04:20:15;0.10;;;0.10;;
25187;SDS011;13141;50.414;8.050;2023-07-09T04:22:40;0.20;;;0.20;;
25187;SDS011;13141;50.414;8.050;2023-07-09T04:25:06;0.20;;;0.20;;
25187;SDS011;13141;50.414;8.050;2023-07-09T04:27:34;0.25;;;0.25;;
25187;SDS011;13141;50.414;8.050;2023-07-09T04:30:02;0.17;;;0.17;;
25187;SDS011;13141;50.414;8.050;2023-07-09T04:32:28;0.20;;;0.20;;
25187;SDS011;13141;50.414;8.050;2023-07-09T04:34:53;0.10;;;0.10;;
25187;SDS011;13141;50.414;8.050;2023-07-09T04:37:19;0.10;;;0.10;;
25187;SDS011;13141;50.414;8.050;2023-07-09T04:39:45;0.17;;;0.17;;
25187;SDS011;13141;50.414;8.050;2023-07-09T04:42:11;0.20;;;0.20;;
25187;SDS011;13141;50.414;8.050;2023-07-09T04:44:38;0.20;;;0.20;;
25187;SDS011;13141;50.414;8.050;2023-07-09T04:47:06;0.20;;;0.20;;
25187;SDS011;13141;50.414;8.050;2023-07-09T04:49:32;0.20;;;0.20;;
25187;SDS011;13141;50.414;8.050;2023-07-09T04:51:57;0.10;;;0.10;;
25187;SDS011;13141;50.414;8.050;2023-07-09T04:54:23;0.20;;;0.20;;
25187;SDS011;13141;50.414;8.050;2023-07-09T04:56:49;0.20;;;0.20;;
25187;SDS011;13141;50.414;8.050;2023-07-09T04:59:15;0.30;;;0.30;;
25187;SDS011;13141;50.414;8.050;2023-07-09T05:01:40;0.20;;;0.20;;
25187;SDS011;13141;50.414;8.050;2023-07-09T05:04:08;0.10;;;0.10;;
25187;SDS011;13141;50.414;8.050;2023-07-09T05:06:36;0.15;;;0.15;;
25187;SDS011;13141;50.414;8.050;2023-07-09T05:09:02;0.25;;;0.25;;
25187;SDS011;13141;50.414;8.050;2023-07-09T05:11:27;0.20;;;0.20;;
25187;SDS011;13141;50.414;8.050;2023-07-09T05:13:53;0.10;;;0.10;;
25187;SDS011;13141;50.414;8.050;2023-07-09T05:16:19;0.10;;;0.10;;
25187;SDS011;13141;50.414;8.050;2023-07-09T05:18:45;0.10;;;0.10;;
25187;SDS011;13141;50.414;8.050;2023-07-09T05:21:12;0.20;;;0.20;;
25187;SDS011;13141;50.414;8.050;2023-07-09T05:23:38;0.15;;;0.15;;
25187;SDS011;13141;50.414;8.050;2023-07-09T05:26:04;0.10;;;0.10;;
25187;SDS011;13141;50.414;8.050;2023-07-09T05:28:30;0.10;;;0.10;;
25187;SDS011;13141;50.414;8.050;2023-07-09T05:30:56;0.20;;;0.20;;
25187;SDS011;13141;50.414;8.050;2023-07-09T05:33:21;0.10;;;0.10;;
25187;SDS011;13141;50.414;8.050;2023-07-09T05:35:47;0.13;;;0.13;;
25187;SDS011;13141;50.414;8.050;2023-07-09T05:38:15;0.10;;;0.10;;
25187;SDS011;13141;50.414;8.050;2023-07-09T05:40:40;0.10;;;0.10;;
25187;SDS011;13141;50.414;8.050;2023-07-09T05:43:06;0.20;;;0.20;;
25187;SDS011;13141;50.414;8.050;2023-07-09T05:45:32;0.10;;;0.10;;
25187;SDS011;13141;50.414;8.050;2023-07-09T05:47:57;0.20;;;0.20;;
25187;SDS011;13141;50.414;8.050;2023-07-09T05:50:23;0.20;;;0.20;;
25187;SDS011;13141;50.414;8.050;2023-07-09T05:52:49;0.20;;;0.20;;
25187;SDS011;13141;50.414;8.050;2023-07-09T05:55:16;0.20;;;0.20;;
25187;SDS011;13141;50.414;8.050;2023-07-09T05:57:42;0.10;;;0.10;;
25187;SDS011;13141;50.414;8.050;2023-07-09T06:00:08;0.13;;;0.13;;
25187;SDS011;13141;50.414;8.050;2023-07-09T06:02:35;0.20;;;0.20;;
25187;SDS011;13141;50.414;8.050;2023-07-09T06:05:00;0.20;;;0.20;;
25187;SDS011;13141;50.414;8.050;2023-07-09T06:07:28;0.20;;;0.20;;
25187;SDS011;13141;50.414;8.050;2023-07-09T06:09:54;0.17;;;0.17;;
25187;SDS011;13141;50.414;8.050;2023-07-09T06:12:21;0.25;;;0.25;;
25187;SDS011;13141;50.414;8.050;2023-07-09T06:14:46;0.15;;;0.15;;
25187;SDS011;13141;50.414;8.050;2023-07-09T06:17:12;0.20;;;0.20;;
25187;SDS011;13141;50.414;8.050;2023-07-09T06:19:38;0.20;;;0.20;;
25187;SDS011;13141;50.414;8.050;2023-07-09T06:22:04;0.20;;;0.20;;
25187;SDS011;13141;50.414;8.050;2023-07-09T06:24:30;0.10;;;0.10;;
25187;SDS011;13141;50.414;8.050;2023-07-09T06:26:56;0.20;;;0.20;;
25187;SDS011;13141;50.414;8.050;2023-07-09T06:29:23;0.13;;;0.13;;
25187;SDS011;13141;50.414;8.050;2023-07-09T06:31:51;0.20;;;0.20;;
25187;SDS011;13141;50.414;8.050;2023-07-09T06:34:17;0.20;;;0.20;;
25187;SDS011;13141;50.414;8.050;2023-07-09T06:36:43;0.15;;;0.15;;
25187;SDS011;13141;50.414;8.050;2023-07-09T06:39:09;0.10;;;0.10;;
25187;SDS011;13141;50.414;8.050;2023-07-09T06:41:34;0.15;;;0.15;;
25187;SDS011;13141;50.414;8.050;2023-07-09T06:44:00;0.10;;;0.10;;
25187;SDS011;13141;50.414;8.050;2023-07-09T06:46:27;0.20;;;0.20;;
25187;SDS011;13141;50.414;8.050;2023-07-09T06:48:53;0.20;;;0.20;;
25187;SDS011;13141;50.414;8.050;2023-07-09T06:51:18;0.10;;;0.10;;
25187;SDS011;13141;50.414;8.050;2023-07-09T06:53:44;0.10;;;0.10;;
25187;SDS011;13141;50.414;8.050;2023-07-09T06:56:10;0.10;;;0.10;;
25187;SDS011;13141;50.414;8.050;2023-07-09T06:58:36;0.10;;;0.10;;
25187;SDS011;13141;50.414;8.050;2023-07-09T07:01:02;0.20;;;0.20;;
25187;SDS011;13141;50.414;8.050;2023-07-09T07:03:31;0.20;;;0.20;;
25187;SDS011;13141;50.414;8.050;2023-07-09T07:05:57;0.10;;;0.10;;
25187;SDS011;13141;50.414;8.050;2023-07-09T07:08:24;0.20;;;0.20;;
25187;SDS011;13141;50.414;8.050;2023-07-09T07:10:50;0.20;;;0.20;;
25187;SDS011;13141;50.414;8.050;2023-07-09T07:13:20;0.20;;;0.20;;
25187;SDS011;13141;50.414;8.050;2023-07-09T07:15:47;0.20;;;0.20;;
25187;SDS011;13141;50.414;8.050;2023-07-09T07:18:13;0.20;;;0.20;;
25187;SDS011;13141;50.414;8.050;2023-07-09T07:20:40;0.20;;;0.20;;
25187;SDS011;13141;50.414;8.050;2023-07-09T07:23:07;0.20;;;0.20;;
25187;SDS011;13141;50.414;8.050;2023-07-09T07:25:33;0.20;;;0.20;;
25187;SDS011;13141;50.414;8.050;2023-07-09T07:27:58;0.20;;;0.20;;
25187;SDS011;13141;50.414;8.050;2023-07-09T07:30:24;0.20;;;0.20;;
25187;SDS011;13141;50.414;8.050;2023-07-09T07:32:50;0.10;;;0.10;;
25187;SDS011;13141;50.414;8.050;2023-07-09T07:35:16;0.20;;;0.20;;
25187;SDS011;13141;50.414;8.050;2023-07-09T07:37:43;0.20;;;0.20;;
25187;SDS011;13141;50.414;8.050;2023-07-09T07:40:09;0.20;;;0.20;;
25187;SDS011;13141;50.414;8.050;2023-07-09T07:42:35;0.20;;;0.20;;
25187;SDS011;13141;50.414;8.050;2023-07-09T07:45:01;0.20;;;0.20;;
25187;SDS011;13141;50.414;8.050;2023-07-09T07:47:28;0.10;;;0.10;;
25187;SDS011;13141;50.414;8.050;2023-07-09T07:49:55;0.10;;;0.10;;
25187;SDS011;13141;50.414;8.050;2023-07-09T07:52:22;0.20;;;0.20;;
25187;SDS011;13141;50.414;8.050;2023-07-09T07:54:49;0.20;;;0.20;;
25187;SDS011;13141;50.414;8.050;2023-07-09T07:57:15;0.20;;;0.20;;
25187;SDS011;13141;50.414;8.050;2023-07-09T07:59:41;0.20;;;0.20;;
25187;SDS011;13141;50.414;8.050;2023-07-09T08:02:08;0.20;;;0.20;;
25187;SDS011;13141;50.414;8.050;2023-07-09T08:04:36;0.10;;;0.10;;
25187;SDS011;13141;50.414;8.050;2023-07-09T08:07:03;0.20;;;0.20;;
25187;SDS011;13141;50.414;8.050;2023-07-09T08:09:30;0.17;;;0.17;;
25187;SDS011;13141;50.414;8.050;2023-07-09T08:11:58;0.30;;;0.30;;
25187;SDS011;13141;50.414;8.050;2023-07-09T08:14:23;0.20;;;0.20;;
25187;SDS011;13141;50.414;8.050;2023-07-09T08:16:49;0.20;;;0.20;;
25187;SDS011;13141;50.414;8.050;2023-07-09T08:19:17;0.20;;;0.20;;
25187;SDS011;13141;50.414;8.050;2023-07-09T08:21:44;0.20;;;0.20;;
25187;SDS011;13141;50.414;8.050;2023-07-09T08:24:10;0.30;;;0.30;;
25187;SDS011;13141;50.414;8.050;2023-07-09T08:26:38;0.30;;;0.30;;
25187;SDS011;13141;50.414;8.050;2023-07-09T08:29:06;0.20;;;0.20;;
25187;SDS011;13141;50.414;8.050;2023-07-09T08:31:32;0.20;;;0.20;;
25187;SDS011;13141;50.414;8.050;2023-07-09T08:33:58;0.20;;;0.20;;
25187;SDS011;13141;50.414;8.050;2023-07-09T08:36:24;0.20;;;0.20;;
25187;SDS011;13141;50.414;8.050;2023-07-09T08:38:50;0.20;;;0.20;;
25187;SDS011;13141;50.414;8.050;2023-07-09T08:41:19;0.30;;;0.30;;
25187;SDS011;13141;50.414;8.050;2023-07-09T08:43:58;0.25;;;0.25;;
25187;SDS011;13141;50.414;8.050;2023-07-09T08:46:34;0.20;;;0.20;;
25187;SDS011;13141;50.414;8.050;2023-07-09T08:49:12;0.30;;;0.30;;
25187;SDS011;13141;50.414;8.050;2023-07-09T08:51:43;0.22;;;0.22;;
25187;SDS011;13141;50.414;8.050;2023-07-09T08:54:12;0.20;;;0.20;;
25187;SDS011;13141;50.414;8.050;2023-07-09T08:56:42;0.20;;;0.20;;
25187;SDS011;13141;50.414;8.050;2023-07-09T08:59:09;0.20;;;0.20;;
25187;SDS011;13141;50.414;8.050;2023-07-09T09:01:44;0.20;;;0.20;;
25187;SDS011;13141;50.414;8.050;2023-07-09T09:04:21;0.28;;;0.28;;
25187;SDS011;13141;50.414;8.050;2023-07-09T09:06:50;0.30;;;0.30;;
25187;SDS011;13141;50.414;8.050;2023-07-09T09:09:25;0.30;;;0.30;;
25187;SDS011;13141;50.414;8.050;2023-07-09T09:11:55;0.22;;;0.22;;
25187;SDS011;13141;50.414;8.050;2023-07-09T09:14:27;0.20;;;0.20;;
25187;SDS011;13141;50.414;8.050;2023-07-09T09:16:58;0.30;;;0.30;;
25187;SDS011;13141;50.414;8.050;2023-07-09T09:19:27;0.30;;;0.30;;
25187;SDS011;13141;50.414;8.050;2023-07-09T09:21:56;0.30;;;0.30;;
25187;SDS011;13141;50.414;8.050;2023-07-09T09:24:26;0.30;;;0.30;;
25187;SDS011;13141;50.414;8.050;2023-07-09T09:26:56;0.30;;;0.30;;
25187;SDS011;13141;50.414;8.050;2023-07-09T09:29:24;0.20;;;0.20;;
25187;SDS011;13141;50.414;8.050;2023-07-09T09:31:52;0.20;;;0.20;;
25187;SDS011;13141;50.414;8.050;2023-07-09T09:34:22;0.28;;;0.28;;
25187;SDS011;13141;50.414;8.050;2023-07-09T09:36:50;0.37;;;0.37;;
25187;SDS011;13141;50.414;8.050;2023-07-09T09:39:16;0.20;;;0.20;;
25187;SDS011;13141;50.414;8.050;2023-07-09T09:41:43;0.30;;;0.30;;
25187;SDS011;13141;50.414;8.050;2023-07-09T09:44:16;0.30;;;0.30;;
25187;SDS011;13141;50.414;8.050;2023-07-09T09:46:43;0.30;;;0.30;;
25187;SDS011;13141;50.414;8.050;2023-07-09T09:49:09;0.30;;;0.30;;
25187;SDS011;13141;50.414;8.050;2023-07-09T09:51:39;0.10;;;0.10;;
25187;SDS011;13141;50.414;8.050;2023-07-09T09:54:10;0.30;;;0.30;;
25187;SDS011;13141;50.414;8.050;2023-07-09T09:56:42;0.20;;;0.20;;
25187;SDS011;13141;50.414;8.050;2023-07-09T09:59:15;0.20;;;0.20;;
25187;SDS011;13141;50.414;8.050;2023-07-09T10:01:45;0.22;;;0.22;;
25187;SDS011;13141;50.414;8.050;2023-07-09T10:04:13;0.10;;;0.10;;
25187;SDS011;13141;50.414;8.050;2023-07-09T10:06:45;0.20;;;0.20;;
25187;SDS011;13141;50.414;8.050;2023-07-09T10:09:15;0.20;;;0.20;;
25187;SDS011;13141;50.414;8.050;2023-07-09T10:11:49;0.22;;;0.22;;
25187;SDS011;13141;50.414;8.050;2023-07-09T10:14:31;0.20;;;0.20;;
25187;SDS011;13141;50.414;8.050;2023-07-09T10:17:10;0.20;;;0.20;;
25187;SDS011;13141;50.414;8.050;2023-07-09T10:19:45;0.20;;;0.20;;
25187;SDS011;13141;50.414;8.050;2023-07-09T10:22:19;0.30;;;0.30;;
25187;SDS011;13141;50.414;8.050;2023-07-09T10:24:51;0.30;;;0.30;;
25187;SDS011;13141;50.414;8.050;2023-07-09T10:27:27;0.28;;;0.28;;
25187;SDS011;13141;50.414;8.050;2023-07-09T10:30:00;0.30;;;0.30;;
25187;SDS011;13141;50.414;8.050;2023-07-09T10:32:42;0.30;;;0.30;;
25187;SDS011;13141;50.414;8.050;2023-07-09T10:35:16;0.20;;;0.20;;
25187;SDS011;13141;50.414;8.050;2023-07-09T10:37:53;0.20;;;0.20;;
25187;SDS011;13141;50.414;8.050;2023-07-09T10:40:49;0.20;;;0.20;;
25187;SDS011;13141;50.414;8.050;2023-07-09T10:43:20;0.30;;;0.30;;
25187;SDS011;13141;50.414;8.050;2023-07-09T10:45:54;0.30;;;0.30;;
25187;SDS011;13141;50.414;8.050;2023-07-09T10:48:28;0.30;;;0.30;;
25187;SDS011;13141;50.414;8.050;2023-07-09T10:50:59;0.30;;;0.30;;
25187;SDS011;13141;50.414;8.050;2023-07-09T10:53:28;0.30;;;0.30;;
25187;SDS011;13141;50.414;8.050;2023-07-09T10:55:57;0.40;;;0.40;;
25187;SDS011;13141;50.414;8.050;2023-07-09T10:58:29;0.28;;;0.28;;
25187;SDS011;13141;50.414;8.050;2023-07-09T11:01:01;0.20;;;0.20;;
25187;SDS011;13141;50.414;8.050;2023-07-09T11:03:30;0.20;;;0.20;;
25187;SDS011;13141;50.414;8.050;2023-07-09T11:06:04;0.30;;;0.30;;
25187;SDS011;13141;50.414;8.050;2023-07-09T11:08:38;0.32;;;0.32;;
25187;SDS011;13141;50.414;8.050;2023-07-09T11:11:06;0.30;;;0.30;;
25187;SDS011;13141;50.414;8.050;2023-07-09T11:13:36;0.40;;;0.40;;
25187;SDS011;13141;50.414;8.050;2023-07-09T11:16:06;0.20;;;0.20;;
25187;SDS011;13141;50.414;8.050;2023-07-09T11:18:36;0.35;;;0.35;;
25187;SDS011;13141;50.414;8.050;2023-07-09T11:21:04;0.30;;;0.30;;
25187;SDS011;13141;50.414;8.050;2023-07-09T11:23:44;0.20;;;0.20;;
25187;SDS011;13141;50.414;8.050;2023-07-09T11:26:14;0.30;;;0.30;;
25187;SDS011;13141;50.414;8.050;2023-07-09T11:28:51;0.30;;;0.30;;
25187;SDS011;13141;50.414;8.050;2023-07-09T11:31:21;0.40;;;0.40;;
25187;SDS011;13141;50.414;8.050;2023-07-09T11:33:56;0.30;;;0.30;;
25187;SDS011;13141;50.414;8.050;2023-07-09T11:36:26;0.25;;;0.25;;
25187;SDS011;13141;50.414;8.050;2023-07-09T11:38:55;0.30;;;0.30;;
25187;SDS011;13141;50.414;8.050;2023-07-09T11:41:38;0.30;;;0.30;;
25187;SDS011;13141;50.414;8.050;2023-07-09T11:44:13;0.30;;;0.30;;
25187;SDS011;13141;50.414;8.050;2023-07-09T11:46:45;0.30;;;0.30;;
25187;SDS011;13141;50.414;8.050;2023-07-09T11:49:32;0.30;;;0.30;;
25187;SDS011;13141;50.414;8.050;2023-07-09T11:52:02;0.32;;;0.32;;
25187;SDS011;13141;50.414;8.050;2023-07-09T11:54:36;0.28;;;0.28;;
25187;SDS011;13141;50.414;8.050;2023-07-09T11:57:02;0.20;;;0.20;;
25187;SDS011;13141;50.414;8.050;2023-07-09T11:59:37;0.40;;;0.40;;
25187;SDS011;13141;50.414;8.050;2023-07-09T12:02:04;0.43;;;0.43;;
25187;SDS011;13141;50.414;8.050;2023-07-09T12:04:30;0.37;;;0.37;;
25187;SDS011;13141;50.414;8.050;2023-07-09T12:06:59;0.30;;;0.30;;
25187;SDS011;13141;50.414;8.050;2023-07-09T12:09:30;0.30;;;0.30;;
25187;SDS011;13141;50.414;8.050;2023-07-09T12:11:58;0.40;;;0.40;;
25187;SDS011;13141;50.414;8.050;2023-07-09T12:14:26;0.40;;;0.40;;
25187;SDS011;13141;50.414;8.050;2023-07-09T12:16:52;0.30;;;0.30;;
25187;SDS011;13141;50.414;8.050;2023-07-09T12:19:20;0.40;;;0.40;;
25187;SDS011;13141;50.414;8.050;2023-07-09T12:21:55;0.30;;;0.30;;
25187;SDS011;13141;50.414;8.050;2023-07-09T12:24:22;0.30;;;0.30;;
25187;SDS011;13141;50.414;8.050;2023-07-09T12:26:51;0.30;;;0.30;;
25187;SDS011;13141;50.414;8.050;2023-07-09T12:29:19;0.30;;;0.30;;
25187;SDS011;13141;50.414;8.050;2023-07-09T12:31:48;0.22;;;0.22;;
25187;SDS011;13141;50.414;8.050;2023-07-09T12:34:15;0.30;;;0.30;;
25187;SDS011;13141;50.414;8.050;2023-07-09T12:36:43;0.40;;;0.40;;
25187;SDS011;13141;50.414;8.050;2023-07-09T12:39:13;0.30;;;0.30;;
25187;SDS011;13141;50.414;8.050;2023-07-09T12:41:42;0.28;;;0.28;;
25187;SDS011;13141;50.414;8.050;2023-07-09T12:44:16;0.30;;;0.30;;
25187;SDS011;13141;50.414;8.050;2023-07-09T12:46:46;0.37;;;0.37;;
25187;SDS011;13141;50.414;8.050;2023-07-09T12:49:20;0.20;;;0.20;;
25187;SDS011;13141;50.414;8.050;2023-07-09T12:51:48;0.20;;;0.20;;
25187;SDS011;13141;50.414;8.050;2023-07-09T12:54:15;0.40;;;0.40;;
25187;SDS011;13141;50.414;8.050;2023-07-09T12:56:43;0.30;;;0.30;;
25187;SDS011;13141;50.414;8.050;2023-07-09T12:59:15;0.20;;;0.20;;
25187;SDS011;13141;50.414;8.050;2023-07-09T13:01:47;0.40;;;0.40;;
25187;SDS011;13141;50.414;8.050;2023-07-09T13:04:14;0.25;;;0.25;;
25187;SDS011;13141;50.414;8.050;2023-07-09T13:06:40;0.30;;;0.30;;
25187;SDS011;13141;50.414;8.050;2023-07-09T13:09:11;0.30;;;0.30;;
25187;SDS011;13141;50.414;8.050;2023-07-09T13:11:44;0.32;;;0.32;;
25187;SDS011;13141;50.414;8.050;2023-07-09T13:14:16;0.30;;;0.30;;
25187;SDS011;13141;50.414;8.050;2023-07-09T13:16:44;0.40;;;0.40;;
25187;SDS011;13141;50.414;8.050;2023-07-09T13:19:11;0.40;;;0.40;;
25187;SDS011;13141;50.414;8.050;2023-07-09T13:21:37;0.25;;;0.25;;
25187;SDS011;13141;50.414;8.050;2023-07-09T13:24:08;0.32;;;0.32;;
25187;SDS011;13141;50.414;8.050;2023-07-09T13:26:39;0.30;;;0.30;;
25187;SDS011;13141;50.414;8.050;2023-07-09T13:29:07;0.25;;;0.25;;
25187;SDS011;13141;50.414;8.050;2023-07-09T13:31:38;0.30;;;0.30;;
25187;SDS011;13141;50.414;8.050;2023-07-09T13:34:04;0.30;;;0.30;;
25187;SDS011;13141;50.414;8.050;2023-07-09T13:36:48;0.40;;;0.40;;
25187;SDS011;13141;50.414;8.050;2023-07-09T13:39:14;0.37;;;0.37;;
25187;SDS011;13141;50.414;8.050;2023-07-09T13:41:41;0.30;;;0.30;;
25187;SDS011;13141;50.414;8.050;2023-07-09T13:44:10;0.45;;;0.45;;
25187;SDS011;13141;50.414;8.050;2023-07-09T13:46:37;0.40;;;0.40;;
25187;SDS011;13141;50.414;8.050;2023-07-09T13:49:04;0.40;;;0.40;;
25187;SDS011;13141;50.414;8.050;2023-07-09T13:51:33;0.20;;;0.20;;
25187;SDS011;13141;50.414;8.050;2023-07-09T13:54:01;0.32;;;0.32;;
25187;SDS011;13141;50.414;8.050;2023-07-09T13:56:31;0.50;;;0.50;;
25187;SDS011;13141;50.414;8.050;2023-07-09T13:58:57;0.35;;;0.35;;
25187;SDS011;13141;50.414;8.050;2023-07-09T14:01:23;0.30;;;0.30;;
25187;SDS011;13141;50.414;8.050;2023-07-09T14:03:49;0.30;;;0.30;;
25187;SDS011;13141;50.414;8.050;2023-07-09T14:06:17;0.30;;;0.30;;
25187;SDS011;13141;50.414;8.050;2023-07-09T14:08:43;0.40;;;0.40;;
25187;SDS011;13141;50.414;8.050;2023-07-09T14:11:11;0.43;;;0.43;;
25187;SDS011;13141;50.414;8.050;2023-07-09T14:13:38;0.30;;;0.30;;
25187;SDS011;13141;50.414;8.050;2023-07-09T14:16:04;0.30;;;0.30;;
25187;SDS011;13141;50.414;8.050;2023-07-09T14:18:30;0.35;;;0.35;;
25187;SDS011;13141;50.414;8.050;2023-07-09T14:20:56;0.28;;;0.28;;
25187;SDS011;13141;50.414;8.050;2023-07-09T14:23:22;0.25;;;0.25;;
25187;SDS011;13141;50.414;8.050;2023-07-09T14:25:47;0.30;;;0.30;;
25187;SDS011;13141;50.414;8.050;2023-07-09T14:28:15;0.20;;;0.20;;
25187;SDS011;13141;50.414;8.050;2023-07-09T14:30:42;0.30;;;0.30;;
25187;SDS011;13141;50.414;8.050;2023-07-09T14:33:11;0.20;;;0.20;;
25187;SDS011;13141;50.414;8.050;2023-07-09T14:35:40;0.30;;;0.30;;
25187;SDS011;13141;50.414;8.050;2023-07-09T14:38:10;0.20;;;0.20;;
25187;SDS011;13141;50.414;8.050;2023-07-09T14:40:43;0.40;;;0.40;;
25187;SDS011;13141;50.414;8.050;2023-07-09T14:43:10;0.30;;;0.30;;
25187;SDS011;13141;50.414;8.050;2023-07-09T14:45:38;0.20;;;0.20;;
25187;SDS011;13141;50.414;8.050;2023-07-09T14:48:08;0.30;;;0.30;;
25187;SDS011;13141;50.414;8.050;2023-07-09T14:50:34;0.40;;;0.40;;
25187;SDS011;13141;50.414;8.050;2023-07-09T14:53:00;0.40;;;0.40;;